createdAt,value
2023-02-15T00:01:29.820Z,17.17
2023-02-15T00:04:17.787Z,16.57
2023-02-15T00:07:08.433Z,16.43
2023-02-15T00:09:55.317Z,15.77
2023-02-15T00:12:44.429Z,17.73
2023-02-15T00:15:31.957Z,17.53
2023-02-15T00:18:20.016Z,16.97
2023-02-15T00:21:08.584Z,17.37
2023-02-15T00:23:55.079Z,15.33
2023-02-15T00:26:43.628Z,14.60
2023-02-15T00:29:30.444Z,17.87
2023-02-15T00:32:16.994Z,17.60
2023-02-15T00:35:05.343Z,17.03
2023-02-15T00:37:53.510Z,17.90
2023-02-15T00:40:40.293Z,16.43
2023-02-15T00:43:28.230Z,16.93
2023-02-15T00:46:14.780Z,16.83
2023-02-15T00:49:01.618Z,16.23
2023-02-15T00:51:49.732Z,18.20
2023-02-15T00:54:36.728Z,16.23
2023-02-15T00:57:23.759Z,15.90
2023-02-15T01:00:11.616Z,13.03
2023-02-15T01:02:58.267Z,16.63
2023-02-15T01:05:45.036Z,16.47
2023-02-15T01:08:33.423Z,15.60
2023-02-15T01:11:23.881Z,16.27
2023-02-15T01:14:14.259Z,15.10
2023-02-15T01:17:02.033Z,16.67
2023-02-15T01:19:48.903Z,15.67
2023-02-15T01:22:35.808Z,15.67
2023-02-15T01:25:25.457Z,14.40
2023-02-15T01:28:12.868Z,15.73
2023-02-15T01:31:00.314Z,15.17
2023-02-15T01:33:47.983Z,14.90
2023-02-15T01:36:36.350Z,15.00
2023-02-15T01:39:23.256Z,15.20
2023-02-15T01:42:13.919Z,14.53
2023-02-15T01:45:02.683Z,17.30
2023-02-15T01:47:54.087Z,15.60
2023-02-15T01:50:45.189Z,14.17
2023-02-15T01:53:38.043Z,16.67
2023-02-15T01:56:31.593Z,15.93
2023-02-15T01:59:24.092Z,16.03
2023-02-15T02:02:15.232Z,16.27
2023-02-15T02:05:07.404Z,15.40
2023-02-15T02:07:57.077Z,16.17
2023-02-15T02:10:43.449Z,15.73
2023-02-15T02:13:30.742Z,16.20
2023-02-15T02:16:26.139Z,15.33
2023-02-15T02:19:43.814Z,16.33
2023-02-15T02:22:58.562Z,15.57
2023-02-15T02:26:46.883Z,15.90
2023-02-15T02:29:58.728Z,15.27
2023-02-15T02:33:19.599Z,15.13
2023-02-15T02:36:17.603Z,14.73
2023-02-15T02:39:16.036Z,15.30
2023-02-15T02:42:08.564Z,15.33
2023-02-15T02:45:00.128Z,14.97
2023-02-15T02:47:51.394Z,15.23
2023-02-15T02:50:41.700Z,13.73
2023-02-15T02:53:33.454Z,14.10
2023-02-15T02:56:24.690Z,14.73
2023-02-15T02:59:14.945Z,15.43
2023-02-15T03:02:08.377Z,14.73
2023-02-15T03:05:04.340Z,13.37
2023-02-15T03:07:55.555Z,14.93
2023-02-15T03:10:43.632Z,14.37
2023-02-15T03:13:30.807Z,12.73
2023-02-15T03:16:27.851Z,13.80
2023-02-15T03:19:18.579Z,14.03
2023-02-15T03:22:10.397Z,14.53
2023-02-15T03:25:01.747Z,12.80
2023-02-15T03:27:51.687Z,13.47
2023-02-15T03:30:44.197Z,14.50
2023-02-15T03:33:31.592Z,14.10
2023-02-15T03:36:24.972Z,14.60
2023-02-15T03:39:19.531Z,14.87
2023-02-15T03:42:15.081Z,14.67
2023-02-15T03:45:06.011Z,14.03
2023-02-15T03:47:54.916Z,13.53
2023-02-15T03:51:00.462Z,13.63
2023-02-15T03:53:48.929Z,13.87
2023-02-15T03:56:36.690Z,14.93
2023-02-15T03:59:42.239Z,15.07
2023-02-15T04:02:39.155Z,14.90
2023-02-15T04:05:25.632Z,13.93
2023-02-15T04:08:13.274Z,13.50
2023-02-15T04:10:58.658Z,12.90
2023-02-15T04:13:47.052Z,14.73
2023-02-15T04:16:34.155Z,13.03
2023-02-15T04:19:38.205Z,14.20
2023-02-15T04:22:42.603Z,14.43
2023-02-15T04:25:29.404Z,14.33
2023-02-15T04:28:16.082Z,14.80
2023-02-15T04:31:03.202Z,14.67
2023-02-15T04:33:51.301Z,13.30
2023-02-15T04:36:38.417Z,13.73
2023-02-15T04:39:24.929Z,13.10
2023-02-15T04:42:11.650Z,16.40
2023-02-15T04:44:58.404Z,14.50
2023-02-15T04:47:45.280Z,14.93
2023-02-15T04:50:33.341Z,13.67
2023-02-15T04:53:20.015Z,15.53
2023-02-15T04:56:06.895Z,14.87
2023-02-15T04:58:53.512Z,14.20
2023-02-15T05:01:40.628Z,14.43
2023-02-15T05:04:27.357Z,13.60
2023-02-15T05:07:15.829Z,13.77
2023-02-15T05:10:02.594Z,14.63
2023-02-15T05:12:49.653Z,13.93
2023-02-15T05:15:38.828Z,13.60
2023-02-15T05:18:25.880Z,15.40
2023-02-15T05:21:14.587Z,15.43
2023-02-15T05:24:22.522Z,13.97
2023-02-15T05:27:35.103Z,12.17
2023-02-15T05:30:23.014Z,13.60
2023-02-15T05:33:09.944Z,14.40
2023-02-15T05:35:56.671Z,12.53
2023-02-15T05:38:43.424Z,13.67
2023-02-15T05:41:31.618Z,13.50
2023-02-15T05:44:18.735Z,13.17
2023-02-15T05:47:08.162Z,13.73
2023-02-15T05:49:54.573Z,13.90
2023-02-15T05:52:41.536Z,15.43
2023-02-15T05:55:28.297Z,13.73
2023-02-15T05:58:16.478Z,13.93
2023-02-15T06:01:10.604Z,11.93
2023-02-15T06:03:57.415Z,13.83
2023-02-15T06:06:44.018Z,12.80
2023-02-15T06:09:31.504Z,15.17
2023-02-15T06:12:18.215Z,14.87
2023-02-15T06:15:07.126Z,14.43
2023-02-15T06:17:54.060Z,14.83
2023-02-15T06:20:40.866Z,13.80
2023-02-15T06:23:27.737Z,14.73
2023-02-15T06:26:14.525Z,15.67
2023-02-15T06:29:01.317Z,13.07
2023-02-15T06:31:49.575Z,13.90
2023-02-15T06:34:36.400Z,14.03
2023-02-15T06:37:24.772Z,13.10
2023-02-15T06:40:13.474Z,14.77
2023-02-15T06:43:02.096Z,15.23
2023-02-15T06:45:49.916Z,13.53
2023-02-15T06:48:39.138Z,15.53
2023-02-15T06:51:25.779Z,13.93
2023-02-15T06:54:12.721Z,14.33
2023-02-15T06:56:59.486Z,16.90
2023-02-15T06:59:46.226Z,16.07
2023-02-15T07:02:32.922Z,14.10
2023-02-15T07:05:21.362Z,16.50
2023-02-15T07:08:07.920Z,14.53
2023-02-15T07:11:17.474Z,16.80
2023-02-15T07:14:04.206Z,14.70
2023-02-15T07:16:51.188Z,17.47
2023-02-15T07:19:38.076Z,18.13
2023-02-15T07:22:26.254Z,18.67
2023-02-15T07:25:14.235Z,19.87
2023-02-15T07:28:03.388Z,19.97
2023-02-15T07:30:50.266Z,19.57
2023-02-15T07:33:37.011Z,20.77
2023-02-15T07:36:23.599Z,20.97
2023-02-15T07:39:11.793Z,18.73
2023-02-15T07:41:58.500Z,19.00
2023-02-15T07:44:50.463Z,19.87
2023-02-15T07:47:37.250Z,20.03
2023-02-15T07:50:24.130Z,18.97
2023-02-15T07:53:10.833Z,19.10
2023-02-15T07:56:01.732Z,16.40
2023-02-15T07:58:56.668Z,19.13
2023-02-15T08:01:43.135Z,20.17
2023-02-15T08:04:29.991Z,18.87
2023-02-15T08:07:16.804Z,18.43
2023-02-15T08:10:04.536Z,18.13
2023-02-15T08:12:53.645Z,19.53
2023-02-15T08:15:41.421Z,18.70
2023-02-15T08:18:28.829Z,17.93
2023-02-15T08:21:16.958Z,19.33
2023-02-15T08:24:06.047Z,20.03
2023-02-15T08:26:54.880Z,20.80
2023-02-15T08:29:44.465Z,16.90
2023-02-15T08:32:32.116Z,18.40
2023-02-15T08:35:19.716Z,20.07
2023-02-15T08:38:07.096Z,20.90
2023-02-15T08:40:54.535Z,18.90
2023-02-15T08:43:41.707Z,19.50
2023-02-15T08:46:31.007Z,19.73
2023-02-15T08:49:20.801Z,20.17
2023-02-15T08:52:08.110Z,18.57
2023-02-15T08:54:54.960Z,18.17
2023-02-15T08:57:45.917Z,17.90
2023-02-15T09:00:32.615Z,17.03
2023-02-15T09:03:20.809Z,19.57
2023-02-15T09:06:08.716Z,19.13
2023-02-15T09:08:55.813Z,17.43
2023-02-15T09:11:44.273Z,16.60
2023-02-15T09:14:30.814Z,17.17
2023-02-15T09:17:17.538Z,19.03
2023-02-15T09:20:07.614Z,15.93
2023-02-15T09:22:58.115Z,15.87
2023-02-15T09:25:45.935Z,16.00
2023-02-15T09:28:33.689Z,17.03
2023-02-15T09:31:24.327Z,15.97
2023-02-15T09:34:11.014Z,16.70
2023-02-15T09:36:59.299Z,16.93
2023-02-15T09:39:48.862Z,16.93
2023-02-15T09:42:56.414Z,15.67
2023-02-15T09:46:04.466Z,19.10
2023-02-15T09:48:59.326Z,18.10
2023-02-15T09:52:10.630Z,18.70
2023-02-15T09:55:13.331Z,19.00
2023-02-15T09:58:10.041Z,17.33
2023-02-15T10:01:03.627Z,17.47
2023-02-15T10:04:11.073Z,18.23
2023-02-15T10:07:07.751Z,19.70
2023-02-15T10:10:14.345Z,16.10
2023-02-15T10:13:16.513Z,17.93
2023-02-15T10:16:20.736Z,18.13
2023-02-15T10:19:19.915Z,18.17
2023-02-15T10:22:23.326Z,17.43
2023-02-15T10:25:32.446Z,19.30
2023-02-15T10:28:22.823Z,18.73
2023-02-15T10:31:22.496Z,18.33
2023-02-15T10:34:20.471Z,19.63
2023-02-15T10:37:26.606Z,16.57
2023-02-15T10:40:21.231Z,17.77
2023-02-15T10:43:26.730Z,17.90
2023-02-15T10:46:25.056Z,19.57
2023-02-15T10:49:43.158Z,19.00
2023-02-15T10:52:42.981Z,17.87
2023-02-15T10:55:41.557Z,19.17
2023-02-15T10:58:45.953Z,19.07
2023-02-15T11:01:36.947Z,19.20
2023-02-15T11:04:42.166Z,16.73
2023-02-15T11:07:34.660Z,19.07
2023-02-15T11:10:32.318Z,16.37
2023-02-15T11:13:21.193Z,17.40
2023-02-15T11:16:17.653Z,18.07
2023-02-15T11:19:11.365Z,16.57
2023-02-15T11:22:03.139Z,18.40
2023-02-15T11:24:51.451Z,18.50
2023-02-15T11:27:42.537Z,19.27
2023-02-15T11:30:42.627Z,17.93
2023-02-15T11:33:36.530Z,18.63
2023-02-15T11:36:27.510Z,17.50
2023-02-15T11:39:18.766Z,17.67
2023-02-15T11:42:14.261Z,19.53
2023-02-15T11:45:07.203Z,18.20
2023-02-15T11:47:55.857Z,17.33
2023-02-15T11:50:47.202Z,17.80
2023-02-15T11:53:40.817Z,18.37
2023-02-15T11:56:30.341Z,18.63
2023-02-15T11:59:29.261Z,19.27
2023-02-15T12:02:23.560Z,18.20
2023-02-15T12:05:20.858Z,18.67
2023-02-15T12:08:18.289Z,20.17
2023-02-15T12:11:13.402Z,17.23
2023-02-15T12:14:05.068Z,17.00
2023-02-15T12:16:55.568Z,18.83
2023-02-15T12:19:42.762Z,19.13
2023-02-15T12:22:32.699Z,18.30
2023-02-15T12:25:28.025Z,19.07
2023-02-15T12:28:29.073Z,18.97
2023-02-15T12:31:23.767Z,18.73
2023-02-15T12:34:15.569Z,17.70
2023-02-15T12:37:10.350Z,19.67
2023-02-15T12:39:59.065Z,18.83
2023-02-15T12:42:47.767Z,17.67
2023-02-15T12:45:36.238Z,19.57
2023-02-15T12:48:22.977Z,18.90
2023-02-15T12:51:11.729Z,19.10
2023-02-15T12:54:02.016Z,19.53
2023-02-15T12:56:48.586Z,19.17
2023-02-15T12:59:38.776Z,18.57
2023-02-15T13:02:31.949Z,19.43
2023-02-15T13:05:24.665Z,19.77
2023-02-15T13:08:15.948Z,21.87
2023-02-15T13:11:05.807Z,18.60
2023-02-15T13:13:55.067Z,18.80
2023-02-15T13:16:46.858Z,17.63
2023-02-15T13:19:38.052Z,18.97
2023-02-15T13:22:30.297Z,17.17
2023-02-15T13:25:21.924Z,18.50
2023-02-15T13:28:12.770Z,18.60
2023-02-15T13:31:00.903Z,18.77
2023-02-15T13:33:53.689Z,18.97
2023-02-15T13:36:47.168Z,18.40
2023-02-15T13:39:41.751Z,17.00
2023-02-15T13:42:34.724Z,17.97
2023-02-15T13:45:38.633Z,18.40
2023-02-15T13:48:46.952Z,20.30
2023-02-15T13:51:45.320Z,21.07
2023-02-15T13:54:45.546Z,24.10
2023-02-15T13:57:53.790Z,20.80
2023-02-15T14:00:50.076Z,21.90
2023-02-15T14:04:05.665Z,20.03
2023-02-15T14:07:36.498Z,19.40
2023-02-15T14:10:47.002Z,19.70
2023-02-15T14:13:54.561Z,19.13
2023-02-15T14:17:05.739Z,19.03
2023-02-15T14:19:56.963Z,18.33
2023-02-15T14:22:51.088Z,19.03
2023-02-15T14:25:42.463Z,18.83
2023-02-15T14:28:37.083Z,19.13
2023-02-15T14:31:42.981Z,20.10
2023-02-15T14:34:44.280Z,18.40
2023-02-15T14:37:43.032Z,16.97
2023-02-15T14:40:58.076Z,19.20
2023-02-15T14:43:57.083Z,18.43
2023-02-15T14:46:50.624Z,17.70
2023-02-15T14:49:40.109Z,18.43
2023-02-15T14:52:27.064Z,18.97
2023-02-15T14:55:38.633Z,17.93
2023-02-15T14:58:25.650Z,18.13
2023-02-15T15:01:13.776Z,17.87
2023-02-15T15:04:04.672Z,19.73
2023-02-15T15:07:02.924Z,19.23
2023-02-15T15:10:01.320Z,18.57
2023-02-15T15:12:50.746Z,17.87
2023-02-15T15:15:47.507Z,18.53
2023-02-15T15:18:52.149Z,17.93
2023-02-15T15:21:56.061Z,17.90
2023-02-15T15:24:54.574Z,18.80
2023-02-15T15:27:46.901Z,19.17
2023-02-15T15:30:55.692Z,18.50
2023-02-15T15:34:17.169Z,17.87
2023-02-15T15:37:49.497Z,17.77
2023-02-15T15:41:09.958Z,19.87
2023-02-15T15:44:39.012Z,18.97
2023-02-15T15:47:44.850Z,18.50
2023-02-15T15:50:33.359Z,18.33
2023-02-15T15:53:22.911Z,19.20
2023-02-15T15:56:16.322Z,19.17
2023-02-15T15:59:05.981Z,18.47
2023-02-15T16:01:53.140Z,21.27
2023-02-15T16:04:41.240Z,19.57
2023-02-15T16:07:28.445Z,18.47
2023-02-15T16:10:23.966Z,17.80
2023-02-15T16:13:15.929Z,19.23
2023-02-15T16:16:03.032Z,17.43
2023-02-15T16:18:50.815Z,18.07
2023-02-15T16:21:39.751Z,18.77
2023-02-15T16:25:11.933Z,18.47
2023-02-15T16:27:58.474Z,18.07
2023-02-15T16:30:45.615Z,18.23
2023-02-15T16:33:38.468Z,17.37
2023-02-15T16:36:27.904Z,18.13
2023-02-15T16:39:25.188Z,17.33
2023-02-15T16:42:16.528Z,16.77
2023-02-15T16:45:14.203Z,18.23
2023-02-15T16:48:07.641Z,18.73
2023-02-15T16:50:57.816Z,17.97
2023-02-15T16:53:49.365Z,19.93
2023-02-15T16:56:38.444Z,16.53
2023-02-15T16:59:34.356Z,15.60
2023-02-15T17:02:42.977Z,16.60
2023-02-15T17:05:33.311Z,17.20
2023-02-15T17:08:21.701Z,18.43
2023-02-15T17:11:19.883Z,18.00
2023-02-15T17:14:21.912Z,16.30
2023-02-15T17:17:10.211Z,18.97
2023-02-15T17:19:57.565Z,17.13
2023-02-15T17:22:44.058Z,17.17
2023-02-15T17:25:38.985Z,17.33
2023-02-15T17:28:29.269Z,17.57
2023-02-15T17:31:20.309Z,18.77
2023-02-15T17:34:07.197Z,18.33
2023-02-15T17:37:00.882Z,20.03
2023-02-15T17:39:48.736Z,18.03
2023-02-15T17:42:35.356Z,18.80
2023-02-15T17:45:23.721Z,17.20
2023-02-15T17:48:24.600Z,17.60
2023-02-15T17:51:15.195Z,16.77
2023-02-15T17:54:19.160Z,18.67
2023-02-15T17:57:11.432Z,16.70
2023-02-15T18:00:17.020Z,16.97
2023-02-15T18:03:21.385Z,16.63
2023-02-15T18:06:27.791Z,17.17
2023-02-15T18:09:33.999Z,17.10
2023-02-15T18:12:22.905Z,18.07
2023-02-15T18:15:13.146Z,17.60
2023-02-15T18:18:00.306Z,18.00
2023-02-15T18:20:46.883Z,18.23
2023-02-15T18:23:35.088Z,17.10
2023-02-15T18:26:23.810Z,17.73
2023-02-15T18:29:11.108Z,18.70
2023-02-15T18:31:59.590Z,19.17
2023-02-15T18:34:48.037Z,17.80
2023-02-15T18:37:35.299Z,16.13
2023-02-15T18:40:26.858Z,18.17
2023-02-15T18:43:14.449Z,18.13
2023-02-15T18:46:01.199Z,18.97
2023-02-15T18:48:47.842Z,19.10
2023-02-15T18:51:39.972Z,20.43
2023-02-15T18:54:27.012Z,18.37
2023-02-15T18:57:17.260Z,17.90
2023-02-15T19:00:05.820Z,18.30
2023-02-15T19:02:52.576Z,21.60
2023-02-15T19:05:39.124Z,20.83
2023-02-15T19:08:25.955Z,23.83
2023-02-15T19:11:16.594Z,20.17
2023-02-15T19:14:09.386Z,19.90
2023-02-15T19:16:56.715Z,20.37
2023-02-15T19:19:43.243Z,19.17
2023-02-15T19:22:32.806Z,17.83
2023-02-15T19:25:22.690Z,18.23
2023-02-15T19:28:17.141Z,19.40
2023-02-15T19:31:05.681Z,17.50
2023-02-15T19:33:53.124Z,19.37
2023-02-15T19:36:39.594Z,16.90
2023-02-15T19:39:30.012Z,15.67
2023-02-15T19:42:19.856Z,17.20
2023-02-15T19:45:14.963Z,16.77
2023-02-15T19:48:03.371Z,16.33
2023-02-15T19:50:50.547Z,15.30
2023-02-15T19:53:37.118Z,15.60
2023-02-15T19:56:27.024Z,15.60
2023-02-15T19:59:23.118Z,16.40
2023-02-15T20:02:14.687Z,15.43
2023-02-15T20:05:02.918Z,15.50
2023-02-15T20:07:52.084Z,14.77
2023-02-15T20:10:39.285Z,14.67
2023-02-15T20:13:26.437Z,16.67
2023-02-15T20:16:13.100Z,25.73
2023-02-15T20:18:59.869Z,23.90
2023-02-15T20:21:54.527Z,22.17
2023-02-15T20:24:40.971Z,23.47
2023-02-15T20:27:27.641Z,16.60
2023-02-15T20:30:19.822Z,19.10
2023-02-15T20:33:07.720Z,16.33
2023-02-15T20:35:54.538Z,16.80
2023-02-15T20:38:42.848Z,16.70
2023-02-15T20:41:39.244Z,15.33
2023-02-15T20:44:27.793Z,16.80
2023-02-15T20:47:14.284Z,15.67
2023-02-15T20:50:01.934Z,16.07
2023-02-15T20:52:50.567Z,16.13
2023-02-15T20:55:39.729Z,14.93
2023-02-15T20:58:30.226Z,16.33
2023-02-15T21:01:19.859Z,14.90
2023-02-15T21:04:08.825Z,16.73
2023-02-15T21:06:56.215Z,16.07
2023-02-15T21:09:42.777Z,15.93
2023-02-15T21:12:31.282Z,15.90
2023-02-15T21:15:31.747Z,16.60
2023-02-15T21:18:21.767Z,17.30
2023-02-15T21:21:08.277Z,15.70
2023-02-15T21:23:55.419Z,15.50
2023-02-15T21:26:46.041Z,17.43
2023-02-15T21:29:33.943Z,16.63
2023-02-15T21:32:20.775Z,16.23
2023-02-15T21:35:07.986Z,15.73
2023-02-15T21:37:55.104Z,15.47
2023-02-15T21:40:41.943Z,13.83
2023-02-15T21:43:46.164Z,15.23
2023-02-15T21:46:51.519Z,13.80
2023-02-15T21:49:38.297Z,15.67
2023-02-15T21:52:24.124Z,16.33
2023-02-15T21:55:14.957Z,14.90
2023-02-15T21:58:01.923Z,14.77
2023-02-15T22:00:49.594Z,14.83
2023-02-15T22:03:39.659Z,15.57
2023-02-15T22:06:26.375Z,15.03
2023-02-15T22:09:17.808Z,14.40
2023-02-15T22:12:05.213Z,16.23
2023-02-15T22:14:54.647Z,14.57
2023-02-15T22:17:41.247Z,15.63
2023-02-15T22:20:29.570Z,16.53
2023-02-15T22:23:16.290Z,16.03
2023-02-15T22:26:07.638Z,15.13
2023-02-15T22:28:54.468Z,15.70
2023-02-15T22:31:42.105Z,14.97
2023-02-15T22:34:32.280Z,14.40
2023-02-15T22:37:21.229Z,15.77
2023-02-15T22:40:09.685Z,15.43
2023-02-15T22:42:58.697Z,14.00
2023-02-15T22:45:46.621Z,14.60
2023-02-15T22:48:34.738Z,12.97
2023-02-15T22:51:24.039Z,13.53
2023-02-15T22:54:12.312Z,15.00
2023-02-15T22:57:00.932Z,15.87
2023-02-15T22:59:47.976Z,14.87
2023-02-15T23:02:34.865Z,12.90
2023-02-15T23:05:23.917Z,15.53
2023-02-15T23:08:11.445Z,14.70
2023-02-15T23:10:59.457Z,15.37
2023-02-15T23:13:46.146Z,13.93
2023-02-15T23:16:34.889Z,16.83
2023-02-15T23:19:22.353Z,15.60
2023-02-15T23:22:13.791Z,14.83
2023-02-15T23:25:00.668Z,15.30
2023-02-15T23:27:57.966Z,14.70
2023-02-15T23:30:44.634Z,16.67
2023-02-15T23:33:34.926Z,13.67
2023-02-15T23:36:27.792Z,15.00
2023-02-15T23:39:33.929Z,13.70
2023-02-15T23:42:25.196Z,14.70
2023-02-15T23:45:23.269Z,14.77
2023-02-15T23:48:33.704Z,13.53
2023-02-15T23:51:20.991Z,13.03
2023-02-15T23:54:07.767Z,15.37
2023-02-15T23:56:59.207Z,13.47
2023-02-15T23:59:46.097Z,14.80
